Time;durP1;ratioP1;P1;durP2;ratioP2;P2;SDS_P1;SDS_P2;PMS_P1;PMS_P2;Temp;Humidity;BMP_temperature;BMP_pressure;BME280_temperature;BME280_humidity;BME280_pressure;Samples;Min_cycle;Max_cycle;Signal;HPM_P1;HPM_P2
2022/06/13 00:02:03;;;;;;;14.95;13.95;;;16.90;60.60;;;;;;5031269;28;20025;-80
2022/06/13 00:04:29;;;;;;;14.98;13.73;;;17.10;60.60;;;;;;5030382;28;20036;-80
2022/06/13 00:06:55;;;;;;;14.35;13.18;;;17.10;60.80;;;;;;5048689;28;20033;-80
2022/06/13 00:09:21;;;;;;;14.98;13.55;;;17.00;61.80;;;;;;5024624;28;20036;-80
2022/06/13 00:11:47;;;;;;;14.45;13.32;;;16.90;61.10;;;;;;5042221;28;20032;-80
2022/06/13 00:14:13;;;;;;;14.90;13.60;;;16.80;61.50;;;;;;5034994;28;20467;-80
2022/06/13 00:16:39;;;;;;;13.52;12.48;;;16.80;61.80;;;;;;5032746;28;20033;-80
2022/06/13 00:19:05;;;;;;;14.48;13.10;;;16.70;62.10;;;;;;5036671;28;20395;-80
2022/06/13 00:21:33;;;;;;;15.00;13.88;;;16.70;62.10;;;;;;5048843;28;20036;-80
2022/06/13 00:24:01;;;;;;;14.02;12.80;;;16.60;62.50;;;;;;5028600;28;20033;-80
2022/06/13 00:26:28;;;;;;;14.75;13.68;;;16.60;62.70;;;;;;5019175;28;20077;-80
2022/06/13 00:28:54;;;;;;;16.13;13.60;;;16.60;62.70;;;;;;5015689;28;20053;-79
2022/06/13 00:31:21;;;;;;;15.20;13.90;;;16.60;62.70;;;;;;5050812;28;20033;-79
2022/06/13 00:33:47;;;;;;;13.85;12.80;;;16.70;62.60;;;;;;5050580;28;20033;-80
2022/06/13 00:36:13;;;;;;;14.50;13.30;;;16.70;62.60;;;;;;5027768;28;20032;-80
2022/06/13 00:38:39;;;;;;;14.32;13.00;;;16.70;62.60;;;;;;5028121;28;20040;-80
2022/06/13 00:41:09;;;;;;;12.60;11.70;;;16.60;62.80;;;;;;5045198;28;20494;-80
2022/06/13 00:43:36;;;;;;;13.23;12.05;;;16.50;63.20;;;;;;5033553;28;20032;-80
2022/06/13 00:46:02;;;;;;;14.55;12.60;;;16.50;63.30;;;;;;5051975;28;20033;-79
2022/06/13 00:48:29;;;;;;;12.80;11.90;;;16.50;63.30;;;;;;5044482;28;20369;-80
2022/06/13 00:50:56;;;;;;;13.05;11.68;;;16.50;63.20;;;;;;5014565;28;20033;-79
2022/06/13 00:53:27;;;;;;;11.65;10.60;;;16.50;63.50;;;;;;5025668;28;20048;-80
2022/06/13 00:55:59;;;;;;;10.88;10.05;;;16.50;63.70;;;;;;5033099;28;20022;-80
2022/06/13 00:58:26;;;;;;;11.00;10.07;;;16.50;63.90;;;;;;5051511;28;20048;-79
2022/06/13 01:00:53;;;;;;;12.60;10.80;;;16.40;64.00;;;;;;5033425;28;20021;-79
2022/06/13 01:03:19;;;;;;;11.40;10.38;;;16.30;64.20;;;;;;5014741;28;20037;-79
2022/06/13 01:05:47;;;;;;;11.52;10.63;;;16.20;64.60;;;;;;5008554;28;20029;-80
2022/06/13 01:08:14;;;;;;;14.32;10.43;;;16.20;64.80;;;;;;5037730;28;20044;-80
2022/06/13 01:13:54;;;;;;;11.77;8.98;;;16.00;65.70;;;;;;5055612;28;20081;-79
2022/06/13 01:16:32;;;;;;;10.65;9.57;;;16.00;66.00;;;;;;5047061;28;20060;-79
2022/06/13 01:19:16;;;;;;;10.23;9.40;;;16.00;66.10;;;;;;5048849;28;20046;-79
2022/06/13 01:21:44;;;;;;;10.02;8.90;;;15.90;66.10;;;;;;5051101;28;20045;-80
2022/06/13 01:24:42;;;;;;;9.02;8.23;;;16.00;66.10;;;;;;5042206;28;20025;-79
2022/06/13 01:27:34;;;;;;;9.13;8.32;;;16.00;66.20;;;;;;5049485;28;20033;-79
2022/06/13 01:30:40;;;;;;;9.57;8.70;;;15.90;66.60;;;;;;4986314;28;20049;-79
2022/06/13 01:33:13;;;;;;;15.98;10.00;;;15.90;66.50;;;;;;4963367;28;20030;-79
2022/06/13 01:35:47;;;;;;;10.57;9.57;;;15.90;66.60;;;;;;4973258;28;20558;-80
2022/06/13 01:38:24;;;;;;;9.90;8.10;;;15.90;66.60;;;;;;4982019;28;20034;-79
2022/06/13 01:41:11;;;;;;;14.32;8.35;;;15.90;66.80;;;;;;4953946;28;20042;-80
2022/06/13 01:44:30;;;;;;;13.35;8.38;;;15.70;67.20;;;;;;4940308;28;20035;-80
2022/06/13 01:47:02;;;;;;;13.18;8.65;;;15.70;67.60;;;;;;4917473;29;20032;-79
2022/06/13 01:49:50;;;;;;;12.75;8.98;;;15.70;67.60;;;;;;4931316;29;20075;-80
2022/06/13 01:52:50;;;;;;;10.45;8.90;;;15.70;67.40;;;;;;4914462;29;20050;-79
2022/06/13 01:55:46;;;;;;;9.10;8.40;;;15.70;67.70;;;;;;4928971;29;20040;-80
2022/06/13 01:58:15;;;;;;;11.07;8.32;;;15.60;68.00;;;;;;4913152;29;20048;-79
2022/06/13 02:00:50;;;;;;;9.30;8.48;;;15.60;68.20;;;;;;4914369;29;20446;-79
2022/06/13 02:03:26;;;;;;;9.95;8.60;;;15.60;68.30;;;;;;4909208;29;20036;-79
2022/06/13 02:05:54;;;;;;;10.07;8.90;;;15.50;68.40;;;;;;4910168;28;20036;-79
2022/06/13 02:08:23;;;;;;;9.57;8.50;;;15.60;68.10;;;;;;4982232;28;20049;-79
2022/06/13 02:11:00;;;;;;;9.95;8.07;;;15.50;68.10;;;;;;4989844;28;20038;-79
2022/06/13 02:13:57;;;;;;;9.70;8.80;;;15.50;68.40;;;;;;4992063;28;20053;-79
2022/06/13 02:16:51;;;;;;;14.25;8.80;;;15.40;68.60;;;;;;5037335;27;20813;-79
2022/06/13 02:19:34;;;;;;;10.65;8.80;;;15.60;68.20;;;;;;5023101;28;20368;-79
2022/06/13 02:22:11;;;;;;;11.40;9.43;;;15.70;67.40;;;;;;5026498;28;20418;-79
2022/06/13 02:24:41;;;;;;;10.02;8.75;;;15.70;67.40;;;;;;5021874;28;20426;-79
2022/06/13 02:27:08;;;;;;;9.93;8.82;;;15.60;67.70;;;;;;5009667;28;20411;-79
2022/06/13 02:29:46;;;;;;;10.98;8.93;;;15.60;67.60;;;;;;5015059;28;20033;-79
2022/06/13 02:32:19;;;;;;;13.52;8.70;;;15.70;67.70;;;;;;5021951;28;20030;-79
2022/06/13 02:34:54;;;;;;;9.75;8.70;;;15.60;68.10;;;;;;4993016;28;20475;-79
2022/06/13 02:37:26;;;;;;;13.23;9.32;;;15.60;67.90;;;;;;5009018;28;20042;-79
2022/06/13 02:40:00;;;;;;;13.90;9.30;;;15.60;67.90;;;;;;5025028;28;20040;-79
2022/06/13 02:42:31;;;;;;;10.27;8.50;;;15.60;68.10;;;;;;5018222;28;20032;-79
2022/06/13 02:45:15;;;;;;;11.57;9.45;;;15.60;68.00;;;;;;5017713;28;20082;-78
2022/06/13 02:47:55;;;;;;;16.38;9.20;;;15.60;68.00;;;;;;5019638;28;20053;-79
2022/06/13 02:50:41;;;;;;;10.13;9.05;;;15.70;67.60;;;;;;5008502;28;20034;-79
2022/06/13 02:53:11;;;;;;;11.35;9.40;;;15.90;67.20;;;;;;5022543;28;20026;-79
2022/06/13 02:55:43;;;;;;;11.85;8.82;;;15.90;66.50;;;;;;5007350;28;20037;-79
2022/06/13 02:58:31;;;;;;;14.85;9.05;;;15.60;67.40;;;;;;5018983;28;20476;-79
2022/06/13 03:01:26;;;;;;;12.93;9.15;;;15.60;67.70;;;;;;5024652;28;20041;-79
2022/06/13 03:04:13;;;;;;;13.07;8.88;;;15.50;67.90;;;;;;5010447;28;20061;-79
2022/06/13 03:07:15;;;;;;;10.07;8.95;;;15.40;68.30;;;;;;5021888;28;20394;-79
2022/06/13 03:09:57;;;;;;;10.57;8.93;;;15.30;68.80;;;;;;5037136;28;20053;-79
2022/06/13 03:12:33;;;;;;;10.70;9.15;;;15.30;68.90;;;;;;5017695;28;20509;-79
2022/06/13 03:15:40;;;;;;;11.75;8.80;;;15.20;69.10;;;;;;5016142;28;20054;-79
2022/06/13 03:18:09;;;;;;;12.68;9.10;;;15.10;69.70;;;;;;4956353;28;20123;-79
2022/06/13 03:20:44;;;;;;;17.15;9.63;;;15.00;69.90;;;;;;4958070;28;20039;-79
2022/06/13 03:23:25;;;;;;;13.45;8.95;;;15.10;69.60;;;;;;4953330;28;20043;-79
2022/06/13 03:25:58;;;;;;;13.57;9.55;;;15.00;69.80;;;;;;4984284;28;20030;-79
2022/06/13 03:28:28;;;;;;;14.60;9.25;;;15.10;69.70;;;;;;4940141;28;20230;-78
2022/06/13 03:31:18;;;;;;;17.48;9.80;;;15.20;69.40;;;;;;4959789;28;20042;-78
2022/06/13 03:33:49;;;;;;;11.30;9.43;;;15.20;69.00;;;;;;4973669;28;20035;-79
2022/06/13 03:36:15;;;;;;;;;;;15.10;69.20;;;;;;4947467;28;20051;-79
2022/06/13 03:39:03;;;;;;;11.18;9.55;;;15.00;69.60;;;;;;4964560;28;19920;-79
2022/06/13 03:41:35;;;;;;;14.18;9.35;;;15.10;69.60;;;;;;4957408;28;20054;-79
2022/06/13 03:44:13;;;;;;;14.00;9.77;;;15.10;69.10;;;;;;4951315;28;20031;-79
2022/06/13 03:46:56;;;;;;;10.57;8.65;;;15.00;69.80;;;;;;4923812;28;20043;-79
2022/06/13 03:49:40;;;;;;;16.40;9.90;;;14.80;70.60;;;;;;4941128;28;20031;-79
2022/06/13 03:52:08;;;;;;;14.38;9.85;;;14.70;71.00;;;;;;4951973;28;20039;-79
2022/06/13 03:54:44;;;;;;;11.50;9.50;;;14.70;71.40;;;;;;4963227;28;20045;-78
2022/06/13 03:57:18;;;;;;;10.60;9.40;;;14.80;71.00;;;;;;4984806;28;20041;-79
2022/06/13 03:59:47;;;;;;;13.80;9.77;;;15.00;70.40;;;;;;5003513;28;20022;-79
2022/06/13 04:02:16;;;;;;;16.13;10.35;;;15.00;70.20;;;;;;4996302;28;20052;-79
2022/06/13 04:04:49;;;;;;;12.85;10.15;;;14.90;70.70;;;;;;4993042;28;20030;-79
2022/06/13 04:07:17;;;;;;;20.40;10.43;;;14.90;70.60;;;;;;4994535;28;20023;-79
2022/06/13 04:09:45;;;;;;;16.75;10.02;;;15.00;70.20;;;;;;4992834;28;20597;-79
2022/06/13 04:12:47;;;;;;;15.60;10.18;;;14.90;70.50;;;;;;5003125;28;20033;-78
2022/06/13 04:15:37;;;;;;;13.25;9.80;;;14.90;70.70;;;;;;4996593;28;20049;-78
2022/06/13 04:18:22;;;;;;;13.48;9.30;;;14.80;71.50;;;;;;4999442;28;20034;-79
2022/06/13 04:20:57;;;;;;;13.68;9.57;;;14.70;71.50;;;;;;5001389;28;20033;-79
2022/06/13 04:23:34;;;;;;;14.05;9.30;;;14.70;71.70;;;;;;4999427;28;20418;-79
2022/06/13 04:26:30;;;;;;;11.00;9.15;;;14.70;71.80;;;;;;4995169;28;20029;-79
2022/06/13 04:28:59;;;;;;;11.07;9.07;;;14.60;72.30;;;;;;4996160;28;20037;-79
2022/06/13 04:31:25;;;;;;;14.70;9.75;;;14.70;71.70;;;;;;4992922;28;20369;-79
2022/06/13 04:33:58;;;;;;;18.77;9.32;;;14.80;71.60;;;;;;4995990;28;20022;-79
2022/06/13 04:36:24;;;;;;;13.70;10.20;;;14.90;71.40;;;;;;5001677;28;20037;-80
2022/06/13 04:38:52;;;;;;;13.35;9.52;;;14.80;71.50;;;;;;4986160;28;20339;-79
2022/06/13 04:41:19;;;;;;;16.25;9.95;;;14.90;71.40;;;;;;5002602;28;20026;-79
2022/06/13 04:43:46;;;;;;;15.75;9.20;;;14.90;71.50;;;;;;5007355;28;20018;-79
2022/06/13 04:46:14;;;;;;;14.85;9.82;;;15.00;71.20;;;;;;4993786;28;20030;-79
2022/06/13 04:48:41;;;;;;;16.85;9.90;;;15.10;70.70;;;;;;5005742;28;20026;-79
2022/06/13 04:51:12;;;;;;;14.93;9.95;;;15.10;70.70;;;;;;5002666;28;20045;-79
2022/06/13 04:54:00;;;;;;;15.98;9.73;;;15.10;71.40;;;;;;5002900;28;20044;-79
2022/06/13 04:56:26;;;;;;;12.52;10.30;;;15.20;71.00;;;;;;5002304;28;20483;-79
2022/06/13 04:58:53;;;;;;;19.75;10.10;;;15.20;70.70;;;;;;4992455;28;20057;-80
2022/06/13 05:01:22;;;;;;;15.02;10.50;;;15.20;70.70;;;;;;4991948;28;20023;-80
2022/06/13 05:03:49;;;;;;;15.10;9.77;;;15.20;71.10;;;;;;4996891;28;20026;-81
2022/06/13 05:06:37;;;;;;;12.98;9.80;;;15.40;70.70;;;;;;4999826;28;20022;-80
2022/06/13 05:09:04;;;;;;;14.25;9.70;;;15.60;69.70;;;;;;5004244;28;20070;-81
2022/06/13 05:11:56;;;;;;;17.52;9.65;;;15.70;69.20;;;;;;5005174;28;20441;-80
2022/06/13 05:14:30;;;;;;;14.77;9.27;;;15.70;69.40;;;;;;5022039;28;20042;-80
2022/06/13 05:17:38;;;;;;;15.05;9.85;;;15.80;69.20;;;;;;4993235;28;20034;-80
2022/06/13 05:20:22;;;;;;;14.70;9.80;;;15.90;69.10;;;;;;4941793;29;20055;-81
2022/06/13 05:22:48;;;;;;;15.23;10.50;;;15.80;69.30;;;;;;4964175;28;20043;-80
2022/06/13 05:25:35;;;;;;;17.42;10.20;;;15.80;69.30;;;;;;4950085;29;20039;-81
2022/06/13 05:28:02;;;;;;;13.25;10.18;;;15.90;68.90;;;;;;4918800;29;20039;-81
2022/06/13 05:30:28;;;;;;;15.95;10.40;;;16.00;68.70;;;;;;4935659;28;20351;-80
2022/06/13 05:32:55;;;;;;;13.40;10.45;;;16.00;68.80;;;;;;4966462;28;20038;-81
2022/06/13 05:35:26;;;;;;;12.48;11.15;;;16.10;68.60;;;;;;4966493;28;20038;-81
2022/06/13 05:37:52;;;;;;;15.02;10.68;;;16.30;68.00;;;;;;4985156;28;20022;-81
2022/06/13 05:40:20;;;;;;;13.20;11.77;;;16.40;67.60;;;;;;4984890;28;20039;-81
2022/06/13 05:42:46;;;;;;;18.10;13.13;;;16.60;67.10;;;;;;4985643;28;20039;-81
2022/06/13 05:45:13;;;;;;;19.00;13.48;;;16.70;66.30;;;;;;4965847;28;20035;-81
2022/06/13 05:47:41;;;;;;;22.75;14.27;;;16.60;66.70;;;;;;4969181;28;20043;-81
2022/06/13 05:50:16;;;;;;;23.42;14.55;;;16.60;66.70;;;;;;4984841;28;20054;-81
2022/06/13 05:52:42;;;;;;;18.67;14.73;;;16.60;66.90;;;;;;4984181;28;20031;-81
2022/06/13 05:55:09;;;;;;;21.50;15.00;;;16.70;66.10;;;;;;4992010;28;20053;-81
2022/06/13 05:57:35;;;;;;;18.15;16.35;;;16.80;66.10;;;;;;5009441;28;20041;-81
2022/06/13 06:00:01;;;;;;;18.08;16.27;;;16.90;65.50;;;;;;4999173;28;20037;-81
2022/06/13 06:02:27;;;;;;;22.40;17.15;;;16.90;66.00;;;;;;4994233;28;20525;-81
2022/06/13 06:04:53;;;;;;;19.83;16.90;;;17.00;65.20;;;;;;4992544;28;20030;-81
2022/06/13 06:07:19;;;;;;;20.65;16.25;;;17.10;64.70;;;;;;4993219;28;20034;-81
2022/06/13 06:09:45;;;;;;;17.38;15.60;;;17.10;64.40;;;;;;5005891;28;20030;-81
2022/06/13 06:12:11;;;;;;;17.80;15.90;;;17.10;63.90;;;;;;5001383;28;20498;-81
2022/06/13 06:14:37;;;;;;;16.58;14.93;;;17.10;64.00;;;;;;5004904;28;20046;-81
2022/06/13 06:17:03;;;;;;;17.85;15.85;;;17.20;63.60;;;;;;4989994;28;20541;-81
2022/06/13 06:19:30;;;;;;;17.25;15.73;;;17.30;63.40;;;;;;4978026;28;20030;-81
2022/06/13 06:21:56;;;;;;;18.02;15.32;;;17.40;63.10;;;;;;4994322;28;20037;-81
2022/06/13 06:24:22;;;;;;;17.02;15.48;;;17.50;62.60;;;;;;4999712;28;20022;-82
2022/06/13 06:26:48;;;;;;;18.60;16.77;;;17.60;62.00;;;;;;4992711;28;20038;-81
2022/06/13 06:29:14;;;;;;;18.65;16.70;;;17.70;62.00;;;;;;5001397;28;20054;-81
2022/06/13 06:31:40;;;;;;;20.02;17.95;;;17.80;61.50;;;;;;5003228;28;20045;-81
2022/06/13 06:34:06;;;;;;;20.13;18.08;;;17.80;61.60;;;;;;4994001;28;20026;-82
2022/06/13 06:36:32;;;;;;;20.95;18.90;;;18.00;61.20;;;;;;5004075;28;20550;-81
2022/06/13 06:38:58;;;;;;;21.10;19.15;;;18.20;60.90;;;;;;4999923;28;20034;-81
2022/06/13 06:41:24;;;;;;;20.48;18.40;;;18.40;60.20;;;;;;4981436;28;20479;-81
2022/06/13 06:43:51;;;;;;;21.73;19.20;;;18.40;60.00;;;;;;5006883;28;20049;-81
2022/06/13 06:46:17;;;;;;;20.85;19.02;;;18.30;60.10;;;;;;4991666;28;20026;-82
2022/06/13 06:48:43;;;;;;;20.95;18.83;;;18.40;60.00;;;;;;5003881;28;20126;-81
2022/06/13 06:51:10;;;;;;;21.23;19.27;;;18.40;59.90;;;;;;4985447;28;20034;-82
2022/06/13 07:02:01;;;;;;;20.15;18.20;;;18.60;59.40;;;;;;4989386;28;20681;-81
2022/06/13 07:04:27;;;;;;;20.77;18.75;;;18.60;58.80;;;;;;4991504;28;20406;-81
2022/06/13 07:06:53;;;;;;;21.20;19.33;;;18.70;59.20;;;;;;4975591;28;20049;-82
2022/06/13 07:09:19;;;;;;;20.30;18.23;;;18.80;58.50;;;;;;4991178;28;20030;-82
2022/06/13 07:11:54;;;;;;;19.65;17.77;;;18.90;57.90;;;;;;4969894;28;20069;-82
2022/06/13 07:14:22;;;;;;;19.33;17.52;;;19.00;57.80;;;;;;4983506;28;20042;-81
2022/06/13 07:16:48;;;;;;;21.05;19.15;;;19.10;57.70;;;;;;4990540;28;20044;-82
2022/06/13 07:19:15;;;;;;;20.08;18.25;;;19.30;57.00;;;;;;4963121;28;20031;-81
2022/06/13 07:21:41;;;;;;;19.60;17.67;;;19.20;57.20;;;;;;4958710;28;20049;-81
2022/06/13 07:24:07;;;;;;;19.48;17.45;;;19.20;57.20;;;;;;4974605;28;20038;-82
2022/06/13 07:26:33;;;;;;;21.35;18.63;;;19.40;57.20;;;;;;4990673;28;20046;-82
2022/06/13 07:28:59;;;;;;;22.25;19.17;;;19.40;56.20;;;;;;4974322;28;20053;-82
2022/06/13 07:31:32;;;;;;;23.90;19.30;;;19.40;57.00;;;;;;4990283;28;20483;-82
2022/06/13 07:33:58;;;;;;;20.65;18.63;;;19.60;56.20;;;;;;5002343;28;20038;-82
2022/06/13 07:36:25;;;;;;;25.42;23.35;;;19.60;56.20;;;;;;5003816;28;20502;-82
2022/06/13 07:38:52;;;;;;;23.33;19.02;;;19.70;55.20;;;;;;4986964;28;20042;-82
2022/06/13 07:41:20;;;;;;;20.98;18.77;;;19.80;55.60;;;;;;4994149;28;20570;-82
2022/06/13 07:43:46;;;;;;;21.77;19.98;;;19.80;55.60;;;;;;4993020;28;20045;-82
2022/06/13 07:46:12;;;;;;;20.15;18.05;;;19.90;55.60;;;;;;4994782;28;20031;-82
2022/06/13 07:48:38;;;;;;;20.48;18.27;;;20.00;54.90;;;;;;4986038;28;20391;-82
2022/06/13 07:51:05;;;;;;;21.92;20.00;;;20.00;54.60;;;;;;4991489;28;20418;-82
2022/06/13 07:53:32;;;;;;;17.77;16.35;;;20.10;54.40;;;;;;4994095;28;20038;-82
2022/06/13 07:55:58;;;;;;;18.23;16.50;;;20.20;54.40;;;;;;4992124;28;20050;-82
2022/06/13 07:58:35;;;;;;;18.83;17.35;;;20.30;53.50;;;;;;4994294;28;20034;-82
2022/06/13 08:01:01;;;;;;;23.15;21.20;;;20.30;53.60;;;;;;4996099;28;20034;-82
2022/06/13 08:03:29;;;;;;;19.77;17.38;;;20.50;53.50;;;;;;5003009;28;20026;-82
2022/06/13 08:05:56;;;;;;;20.05;18.55;;;20.60;53.00;;;;;;4994355;28;20038;-82
2022/06/13 08:08:22;;;;;;;19.17;17.52;;;20.60;52.50;;;;;;4990161;28;20033;-82
2022/06/13 08:10:49;;;;;;;20.40;18.10;;;20.70;52.10;;;;;;4993586;28;20037;-82
2022/06/13 08:13:16;;;;;;;25.42;23.50;;;20.80;51.60;;;;;;4996746;28;20390;-82
2022/06/13 08:15:42;;;;;;;22.58;20.52;;;20.80;50.60;;;;;;4992616;28;20049;-82
2022/06/13 08:18:09;;;;;;;19.55;17.77;;;20.80;51.20;;;;;;5004824;28;20032;-82
2022/06/13 08:20:35;;;;;;;21.90;19.67;;;20.80;50.80;;;;;;5002842;28;20037;-82
2022/06/13 08:23:03;;;;;;;21.05;18.98;;;20.90;50.50;;;;;;5004931;28;20031;-83
2022/06/13 08:25:30;;;;;;;21.40;19.45;;;21.00;50.50;;;;;;5007932;28;20061;-82
2022/06/13 08:27:57;;;;;;;21.15;19.38;;;21.20;50.30;;;;;;4996134;28;20391;-82
2022/06/13 08:30:24;;;;;;;22.55;20.42;;;21.30;50.20;;;;;;5001224;28;20034;-82
2022/06/13 08:32:50;;;;;;;20.88;19.27;;;21.40;49.20;;;;;;5002739;28;20364;-81
2022/06/13 08:35:16;;;;;;;22.05;20.45;;;21.30;49.40;;;;;;5006787;28;20053;-82
2022/06/13 08:37:43;;;;;;;21.63;19.48;;;21.40;48.90;;;;;;4993800;28;20038;-82
2022/06/13 08:40:09;;;;;;;23.77;21.23;;;21.60;49.30;;;;;;4994833;28;20407;-82
2022/06/13 08:42:55;;;;;;;25.13;23.05;;;21.90;48.40;;;;;;5005117;28;20030;-82
2022/06/13 08:45:24;;;;;;;23.85;21.92;;;22.00;48.00;;;;;;5002409;28;20029;-82
2022/06/13 08:47:56;;;;;;;23.85;21.67;;;22.00;48.20;;;;;;5002485;28;20085;-82
2022/06/13 08:50:47;;;;;;;20.70;18.77;;;21.80;47.60;;;;;;5002925;28;20037;-83
2022/06/13 08:53:22;;;;;;;19.05;17.45;;;21.90;47.70;;;;;;5007064;28;20030;-83
2022/06/13 08:55:51;;;;;;;19.92;18.27;;;22.00;46.00;;;;;;4993033;28;20027;-83
2022/06/13 08:58:23;;;;;;;20.23;18.52;;;22.10;45.40;;;;;;4993639;28;20027;-82
2022/06/13 09:01:11;;;;;;;20.55;18.92;;;21.90;46.50;;;;;;4996304;28;20045;-82
2022/06/13 09:03:52;;;;;;;20.10;18.42;;;22.00;46.70;;;;;;5003254;28;20042;-82
2022/06/13 09:06:43;;;;;;;19.63;18.00;;;22.10;46.30;;;;;;5004904;28;20390;-83
2022/06/13 09:09:24;;;;;;;20.27;18.30;;;22.30;45.80;;;;;;5002272;28;20042;-83
2022/06/13 09:12:02;;;;;;;20.33;19.05;;;22.60;45.50;;;;;;5001976;28;20037;-83
2022/06/13 09:14:40;;;;;;;20.08;18.05;;;22.70;44.80;;;;;;5002226;28;20506;-82
2022/06/13 09:17:17;;;;;;;21.00;19.08;;;22.50;44.70;;;;;;5002160;28;20054;-82
2022/06/13 09:20:10;;;;;;;19.00;17.25;;;22.30;45.50;;;;;;4996894;28;20038;-83
2022/06/13 09:22:59;;;;;;;19.10;17.48;;;22.60;45.20;;;;;;4991499;28;20036;-83
2022/06/13 09:25:52;;;;;;;19.33;17.75;;;22.90;44.20;;;;;;4990017;28;20034;-82
2022/06/13 09:28:35;;;;;;;20.70;17.63;;;23.00;43.70;;;;;;4989993;28;20483;-83
2022/06/13 09:31:06;;;;;;;18.70;17.20;;;23.00;43.30;;;;;;4994133;28;20053;-83
2022/06/13 09:33:33;;;;;;;19.58;17.80;;;23.00;43.80;;;;;;4979209;28;20045;-83
2022/06/13 09:36:03;;;;;;;19.08;17.58;;;22.90;44.20;;;;;;4996912;28;20476;-82
2022/06/13 09:38:35;;;;;;;21.38;19.75;;;22.90;44.60;;;;;;5001941;28;20038;-83
2022/06/13 09:41:47;;;;;;;18.27;16.83;;;22.90;43.00;;;;;;5006493;28;20490;-83
2022/06/13 09:44:23;;;;;;;19.30;17.67;;;22.90;43.20;;;;;;4958359;28;20480;-83
2022/06/13 09:47:17;;;;;;;19.90;18.20;;;23.30;43.50;;;;;;4983938;28;20492;-83
2022/06/13 09:49:54;;;;;;;24.63;22.70;;;23.40;42.80;;;;;;4970142;28;20073;-83
2022/06/13 09:52:45;;;;;;;25.10;23.38;;;23.60;41.20;;;;;;4966715;28;20031;-83
2022/06/13 09:55:24;;;;;;;23.30;21.60;;;23.60;40.80;;;;;;4950408;28;20051;-83
2022/06/13 09:57:52;;;;;;;25.45;23.50;;;23.60;41.70;;;;;;4972362;28;20050;-83
2022/06/13 10:00:29;;;;;;;23.88;22.38;;;23.70;40.00;;;;;;4966080;28;20596;-83
2022/06/13 10:03:03;;;;;;;24.25;22.50;;;23.70;39.50;;;;;;4966507;28;20113;-83
2022/06/13 10:05:47;;;;;;;23.40;21.73;;;23.70;39.60;;;;;;4951370;28;20046;-83
2022/06/13 10:08:16;;;;;;;22.73;20.80;;;23.60;39.90;;;;;;4964424;28;20886;-83
2022/06/13 10:11:11;;;;;;;23.30;21.60;;;23.90;40.00;;;;;;4968804;28;20031;-83
2022/06/13 10:13:47;;;;;;;23.00;21.40;;;24.00;40.50;;;;;;4971845;28;20031;-83
2022/06/13 10:16:23;;;;;;;23.77;22.20;;;24.00;39.40;;;;;;5003625;28;20045;-83
2022/06/13 10:19:10;;;;;;;21.92;20.35;;;24.00;39.70;;;;;;4996756;28;20039;-83
2022/06/13 10:21:58;;;;;;;24.40;22.63;;;24.10;39.40;;;;;;4985061;28;20045;-83
2022/06/13 10:24:34;;;;;;;23.10;21.60;;;24.10;39.10;;;;;;4982574;28;20022;-83
2022/06/13 10:27:04;;;;;;;22.42;20.88;;;24.20;39.40;;;;;;4997892;28;20515;-83
2022/06/13 10:29:41;;;;;;;21.58;19.98;;;24.10;39.70;;;;;;4992573;28;20038;-83
2022/06/13 10:32:35;;;;;;;22.58;20.90;;;24.20;37.60;;;;;;4989133;28;20049;-83
2022/06/13 10:35:23;;;;;;;22.45;20.55;;;24.00;38.60;;;;;;4992484;28;20034;-83
2022/06/13 10:38:12;;;;;;;24.48;22.67;;;24.00;38.40;;;;;;4994839;28;20046;-83
2022/06/13 10:40:39;;;;;;;22.02;20.42;;;24.30;38.00;;;;;;4995658;28;20359;-83
2022/06/13 10:43:05;;;;;;;24.38;22.65;;;24.40;38.20;;;;;;4993032;28;20030;-83
2022/06/13 10:45:32;;;;;;;22.48;20.65;;;24.40;37.20;;;;;;5004248;28;20045;-83
2022/06/13 10:48:05;;;;;;;22.20;20.80;;;24.40;37.80;;;;;;5005423;28;20025;-83
2022/06/13 10:50:40;;;;;;;20.48;18.90;;;24.40;35.90;;;;;;5005162;28;20037;-83
2022/06/13 10:53:08;;;;;;;21.13;19.55;;;24.30;36.40;;;;;;5009710;28;20018;-83
2022/06/13 10:55:38;;;;;;;20.58;19.10;;;24.30;36.10;;;;;;4993906;28;20042;-83
2022/06/13 10:58:38;;;;;;;22.05;20.27;;;24.40;37.40;;;;;;5008648;28;20045;-83
2022/06/13 11:01:24;;;;;;;22.42;20.85;;;24.50;38.30;;;;;;5009658;28;20059;-83
2022/06/13 11:04:16;;;;;;;20.95;19.52;;;24.60;38.30;;;;;;5008168;28;20030;-83
2022/06/13 11:06:50;;;;;;;22.55;20.92;;;24.80;37.70;;;;;;5020378;28;20483;-83
2022/06/13 11:09:38;;;;;;;23.63;22.10;;;25.00;37.50;;;;;;5002360;28;20029;-83
2022/06/13 11:12:27;;;;;;;20.70;19.10;;;25.00;36.00;;;;;;5004806;28;20025;-82
2022/06/13 11:23:46;;;;;;;21.75;20.25;;;24.80;35.70;;;;;;4997056;28;20125;-82
2022/06/13 11:28:57;;;;;;;21.80;20.17;;;24.90;35.90;;;;;;4998841;28;20045;-82
2022/06/13 11:31:26;;;;;;;20.55;19.02;;;25.00;37.30;;;;;;4982791;28;20031;-83
2022/06/13 11:33:53;;;;;;;24.35;22.52;;;25.20;36.30;;;;;;4975954;28;20034;-82
2022/06/13 11:36:22;;;;;;;21.88;20.15;;;25.20;36.20;;;;;;4974555;28;20037;-82
2022/06/13 11:38:59;;;;;;;1999.90;999.90;;;25.30;36.80;;;;;;4990873;28;20438;-82
2022/06/13 11:41:41;;;;;;;1999.90;999.90;;;25.40;35.10;;;;;;4989833;28;20440;-83
2022/06/13 11:44:14;;;;;;;21.33;19.58;;;25.40;35.50;;;;;;4974510;28;20031;-82
2022/06/13 11:46:44;;;;;;;1999.90;999.90;;;25.40;36.30;;;;;;4973799;28;20030;-82
2022/06/13 11:49:32;;;;;;;1999.90;999.90;;;25.70;35.10;;;;;;4971587;28;20396;-82
2022/06/13 11:52:10;;;;;;;1999.90;999.90;;;25.60;35.00;;;;;;4990849;28;20037;-83
2022/06/13 11:54:48;;;;;;;1999.90;999.90;;;25.70;34.30;;;;;;4991769;28;20042;-83
2022/06/13 11:57:15;;;;;;;1999.90;999.90;;;25.70;34.00;;;;;;4988603;28;20077;-82
2022/06/13 11:59:50;;;;;;;1999.90;999.90;;;25.60;33.10;;;;;;4985403;28;20488;-82
2022/06/13 12:02:24;;;;;;;1999.90;999.90;;;25.50;34.40;;;;;;4977220;28;20487;-82
2022/06/13 12:04:55;;;;;;;1999.90;999.90;;;25.60;33.90;;;;;;5008181;28;20025;-83
2022/06/13 12:07:31;;;;;;;1999.90;999.90;;;25.80;33.30;;;;;;4994627;28;20034;-82
2022/06/13 12:09:58;;;;;;;1999.90;999.90;;;25.80;31.10;;;;;;4996544;28;20679;-82
2022/06/13 12:12:26;;;;;;;1999.90;999.90;;;25.90;31.90;;;;;;5029144;28;20030;-82
2022/06/13 12:14:52;;;;;;;1999.90;999.90;;;25.90;32.30;;;;;;5000283;28;20042;-82
2022/06/13 12:17:28;;;;;;;1999.90;999.90;;;25.90;31.70;;;;;;5002921;28;20069;-82
2022/06/13 12:20:08;;;;;;;1999.90;999.90;;;26.10;32.00;;;;;;5007634;28;20041;-82
2022/06/13 12:22:37;;;;;;;1999.90;999.90;;;26.10;30.10;;;;;;4992810;28;20491;-82
2022/06/13 12:25:22;;;;;;;1999.90;999.90;;;26.20;31.00;;;;;;4987651;28;20034;-82
2022/06/13 12:28:13;;;;;;;1999.90;999.90;;;26.30;30.40;;;;;;4993088;28;20049;-83
2022/06/13 12:30:49;;;;;;;1999.90;999.90;;;26.20;30.60;;;;;;5014151;28;20038;-82
2022/06/13 12:33:49;;;;;;;1999.90;999.90;;;25.90;29.90;;;;;;5001041;28;20034;-82
2022/06/13 12:36:21;;;;;;;1999.90;999.90;;;26.00;30.90;;;;;;4999982;28;20033;-82
2022/06/13 12:39:09;;;;;;;1999.90;999.90;;;26.30;30.80;;;;;;4999713;28;20038;-83
2022/06/13 12:42:03;;;;;;;1999.90;999.90;;;26.40;30.70;;;;;;5004903;28;20030;-83
2022/06/13 12:44:57;;;;;;;1999.90;999.90;;;26.40;29.40;;;;;;4999008;28;20055;-82
2022/06/13 12:47:46;;;;;;;1999.90;999.90;;;26.30;29.30;;;;;;4996640;28;20041;-82
2022/06/13 12:50:39;;;;;;;1999.90;999.90;;;26.10;29.90;;;;;;4995978;28;20034;-82
2022/06/13 12:53:25;;;;;;;1999.90;999.90;;;26.00;27.70;;;;;;4995789;28;20029;-82
2022/06/13 12:56:06;;;;;;;1999.90;999.90;;;26.00;29.50;;;;;;4966985;28;20035;-82
2022/06/13 12:58:35;;;;;;;1999.90;999.90;;;26.10;30.20;;;;;;4952512;28;20047;-82
2022/06/13 13:01:23;;;;;;;1999.90;999.90;;;26.20;30.60;;;;;;4969289;28;20419;-82
2022/06/13 13:04:03;;;;;;;1999.90;999.90;;;26.20;30.10;;;;;;4965621;28;20031;-81
2022/06/13 13:06:44;;;;;;;;;;;26.10;30.60;;;;;;4983049;28;20043;-82
2022/06/13 13:09:45;;;;;;;1999.90;999.90;;;26.00;30.70;;;;;;4966836;28;20284;-82
2022/06/13 13:12:14;;;;;;;;;;;26.00;30.70;;;;;;4953875;28;20058;-81
2022/06/13 13:14:51;;;;;;;1999.90;999.90;;;25.90;31.80;;;;;;4982360;28;19914;-82
2022/06/13 13:17:35;;;;;;;1999.90;999.90;;;26.10;29.40;;;;;;4952622;28;20500;-82
2022/06/13 13:20:15;;;;;;;1999.90;999.90;;;26.30;30.00;;;;;;4953150;28;20487;-82
2022/06/13 13:23:03;;;;;;;1999.90;999.90;;;26.60;30.60;;;;;;4936281;28;20034;-82
2022/06/13 13:25:55;;;;;;;1999.90;999.90;;;26.90;29.10;;;;;;4968020;28;20050;-82
2022/06/13 13:28:39;;;;;;;1999.90;999.90;;;26.80;28.90;;;;;;4960950;28;20046;-82
2022/06/13 13:31:13;;;;;;;1999.90;999.90;;;26.40;28.60;;;;;;4946610;28;20039;-82